createdAt,value
2024-03-16T00:00:11.798Z,61.70
2024-03-16T00:02:41.260Z,61.80
2024-03-16T00:05:10.047Z,61.80
2024-03-16T00:07:38.822Z,61.80
2024-03-16T00:10:08.955Z,61.80
2024-03-16T00:12:37.785Z,61.90
2024-03-16T00:15:07.168Z,61.80
2024-03-16T00:17:35.929Z,61.90
2024-03-16T00:20:07.199Z,61.90
2024-03-16T00:22:36.334Z,62.00
2024-03-16T00:25:05.932Z,61.90
2024-03-16T00:27:34.786Z,62.00
2024-03-16T00:30:05.248Z,62.10
2024-03-16T00:32:34.090Z,62.20
2024-03-16T00:35:04.748Z,62.10
2024-03-16T00:37:34.262Z,62.10
2024-03-16T00:40:02.937Z,62.10
2024-03-16T00:42:31.722Z,62.20
2024-03-16T00:45:00.507Z,62.00
2024-03-16T00:47:29.445Z,62.00
2024-03-16T00:49:58.241Z,61.90
2024-03-16T00:52:26.954Z,62.00
2024-03-16T00:54:57.939Z,62.00
2024-03-16T00:57:26.993Z,62.10
2024-03-16T00:59:55.926Z,62.00
2024-03-16T01:02:24.776Z,62.00
2024-03-16T01:04:53.654Z,61.90
2024-03-16T01:07:22.962Z,62.00
2024-03-16T01:09:51.621Z,62.00
2024-03-16T01:12:20.501Z,62.10
2024-03-16T01:14:49.126Z,62.10
2024-03-16T01:17:18.065Z,62.10
2024-03-16T01:19:47.214Z,62.00
2024-03-16T01:22:16.174Z,62.20
2024-03-16T01:24:44.815Z,62.10
2024-03-16T01:27:13.568Z,62.20
2024-03-16T01:29:42.184Z,62.10
2024-03-16T01:32:10.989Z,62.10
2024-03-16T01:34:39.681Z,62.20
2024-03-16T01:37:08.821Z,62.00
2024-03-16T01:39:37.800Z,62.00
2024-03-16T01:42:07.636Z,62.00
2024-03-16T01:44:36.467Z,62.00
2024-03-16T01:47:05.773Z,62.10
2024-03-16T01:49:34.606Z,62.20
2024-03-16T01:52:04.783Z,62.10
2024-03-16T01:54:33.608Z,62.20
2024-03-16T01:57:02.427Z,62.20
2024-03-16T01:59:31.104Z,62.20
2024-03-16T02:02:01.628Z,62.30
2024-03-16T02:04:30.486Z,62.20
2024-03-16T02:06:59.255Z,62.20
2024-03-16T02:09:28.472Z,62.40
2024-03-16T02:11:57.529Z,62.30
2024-03-16T02:14:26.446Z,62.30
2024-03-16T02:16:56.484Z,62.30
2024-03-16T02:19:25.388Z,62.30
2024-03-16T02:21:54.393Z,62.30
2024-03-16T02:24:23.087Z,62.30
2024-03-16T02:26:52.175Z,62.30
2024-03-16T02:29:21.477Z,62.40
2024-03-16T02:31:52.792Z,62.10
2024-03-16T02:34:22.669Z,63.00
2024-03-16T02:36:51.691Z,62.20
2024-03-16T02:39:21.256Z,62.00
2024-03-16T02:41:49.863Z,62.10
2024-03-16T02:44:18.718Z,62.40
2024-03-16T02:46:47.413Z,62.40
2024-03-16T02:49:16.815Z,62.40
2024-03-16T02:51:55.462Z,62.40
2024-03-16T02:54:25.010Z,62.50
2024-03-16T02:56:54.088Z,62.40
2024-03-16T02:59:22.885Z,62.40
2024-03-16T03:01:51.757Z,62.50
2024-03-16T03:04:20.879Z,62.40
2024-03-16T03:06:49.659Z,62.50
2024-03-16T03:09:19.470Z,62.50
2024-03-16T03:11:49.260Z,62.60
2024-03-16T03:14:18.217Z,62.60
2024-03-16T03:16:47.050Z,62.70
2024-03-16T03:19:15.906Z,62.50
2024-03-16T03:21:44.678Z,62.50
2024-03-16T03:24:15.216Z,62.80
2024-03-16T03:26:44.192Z,62.70
2024-03-16T03:29:13.128Z,62.50
2024-03-16T03:31:41.901Z,62.60
2024-03-16T03:34:10.889Z,62.50
2024-03-16T03:36:45.263Z,62.50
2024-03-16T03:39:16.814Z,62.60
2024-03-16T03:41:45.770Z,62.60
2024-03-16T03:44:25.372Z,62.50
2024-03-16T03:46:56.346Z,62.50
2024-03-16T03:49:30.872Z,62.50
2024-03-16T03:51:59.938Z,62.50
2024-03-16T03:54:29.290Z,62.60
2024-03-16T03:56:58.071Z,63.30
2024-03-16T03:59:26.944Z,62.50
2024-03-16T04:01:55.814Z,62.70
2024-03-16T04:04:24.923Z,62.70
2024-03-16T04:06:53.884Z,62.70
2024-03-16T04:09:22.848Z,62.70
2024-03-16T04:11:51.613Z,62.80
2024-03-16T04:14:20.760Z,62.90
2024-03-16T04:16:49.716Z,62.80
2024-03-16T04:19:18.932Z,62.80
2024-03-16T04:21:51.337Z,62.60
2024-03-16T04:24:20.649Z,62.50
2024-03-16T04:26:49.189Z,62.70
2024-03-16T04:29:18.018Z,62.60
2024-03-16T04:31:47.106Z,62.60
2024-03-16T04:34:16.251Z,62.70
2024-03-16T04:36:45.036Z,62.70
2024-03-16T04:39:14.567Z,62.80
2024-03-16T04:41:43.448Z,62.90
2024-03-16T04:44:11.985Z,62.80
2024-03-16T04:46:40.751Z,62.60
2024-03-16T04:49:09.998Z,62.80
2024-03-16T04:51:39.107Z,62.80
2024-03-16T04:54:08.033Z,64.20
2024-03-16T04:56:36.955Z,64.60
2024-03-16T04:59:05.838Z,64.60
2024-03-16T05:01:34.823Z,64.60
2024-03-16T05:04:04.245Z,64.80
2024-03-16T05:06:34.993Z,64.80
2024-03-16T05:09:07.376Z,64.80
2024-03-16T05:11:37.224Z,64.80
2024-03-16T05:14:07.262Z,64.80
2024-03-16T05:16:36.390Z,65.00
2024-03-16T05:19:05.476Z,64.40
2024-03-16T05:21:34.209Z,64.10
2024-03-16T05:24:03.302Z,63.80
2024-03-16T05:26:32.964Z,63.90
2024-03-16T05:29:02.121Z,64.50
2024-03-16T05:31:33.305Z,64.70
2024-03-16T05:34:02.427Z,64.80
2024-03-16T05:36:31.471Z,64.70
2024-03-16T05:39:01.906Z,64.90
2024-03-16T05:41:30.547Z,65.00
2024-03-16T05:43:59.824Z,64.80
2024-03-16T05:46:28.751Z,64.80
2024-03-16T05:48:58.118Z,64.80
2024-03-16T05:51:28.394Z,64.80
2024-03-16T05:53:57.551Z,65.00
2024-03-16T05:56:26.078Z,65.20
2024-03-16T05:58:54.720Z,65.70
2024-03-16T06:01:23.504Z,65.70
2024-03-16T06:03:52.933Z,65.80
2024-03-16T06:06:22.480Z,65.80
2024-03-16T06:08:51.321Z,65.90
2024-03-16T06:11:20.270Z,65.80
2024-03-16T06:13:48.963Z,66.00
2024-03-16T06:16:17.928Z,65.20
2024-03-16T06:18:48.859Z,66.10
2024-03-16T06:21:18.133Z,67.00
2024-03-16T06:23:47.694Z,66.20
2024-03-16T06:26:18.900Z,65.00
2024-03-16T06:28:56.009Z,66.00
2024-03-16T06:31:32.630Z,66.50
2024-03-16T06:34:03.240Z,66.30
2024-03-16T06:36:31.969Z,66.60
2024-03-16T06:39:01.621Z,66.20
2024-03-16T06:41:30.536Z,67.50
2024-03-16T06:43:59.588Z,66.00
2024-03-16T06:46:28.543Z,63.60
2024-03-16T06:48:57.117Z,61.70
2024-03-16T06:51:26.148Z,60.90
2024-03-16T06:53:55.109Z,61.40
2024-03-16T06:56:23.990Z,61.00
2024-03-16T06:58:52.832Z,61.30
2024-03-16T07:01:22.117Z,61.40
2024-03-16T07:03:50.943Z,61.60
2024-03-16T07:06:19.674Z,61.90
2024-03-16T07:08:48.740Z,62.00
2024-03-16T07:11:19.933Z,62.00
2024-03-16T07:13:48.783Z,62.10
2024-03-16T07:16:17.175Z,61.80
2024-03-16T07:18:46.100Z,61.80
2024-03-16T07:21:16.760Z,61.60
2024-03-16T07:23:48.175Z,61.70
2024-03-16T07:26:17.416Z,61.70
2024-03-16T07:28:46.523Z,61.90
2024-03-16T07:31:15.323Z,62.10
2024-03-16T07:33:43.928Z,62.20
2024-03-16T07:36:12.590Z,62.20
2024-03-16T07:38:41.528Z,62.00
2024-03-16T07:41:10.638Z,62.00
2024-03-16T07:43:41.661Z,61.80
2024-03-16T07:46:10.474Z,61.60
2024-03-16T07:48:39.615Z,61.80
2024-03-16T07:51:08.310Z,61.70
2024-03-16T07:53:37.073Z,61.70
2024-03-16T07:56:06.366Z,61.60
2024-03-16T07:58:35.410Z,61.40
2024-03-16T08:01:05.809Z,61.40
2024-03-16T08:03:34.879Z,61.40
2024-03-16T08:06:08.539Z,61.50
2024-03-16T08:08:37.718Z,61.60
2024-03-16T08:11:08.364Z,61.90
2024-03-16T08:13:37.637Z,62.20
2024-03-16T08:16:07.587Z,62.50
2024-03-16T08:18:36.350Z,62.30
2024-03-16T08:21:07.788Z,62.50
2024-03-16T08:23:37.798Z,62.50
2024-03-16T08:26:07.475Z,62.40
2024-03-16T08:28:36.555Z,61.40
2024-03-16T08:31:06.337Z,59.10
2024-03-16T08:33:35.312Z,58.50
2024-03-16T08:36:07.296Z,57.80
2024-03-16T08:38:35.997Z,57.90
2024-03-16T08:41:06.274Z,57.60
2024-03-16T08:43:35.693Z,57.40
2024-03-16T08:46:07.651Z,57.10
2024-03-16T08:48:37.776Z,57.20
2024-03-16T08:51:06.896Z,56.90
2024-03-16T08:53:35.736Z,56.90
2024-03-16T08:56:08.413Z,56.80
2024-03-16T08:58:37.220Z,57.10
2024-03-16T09:01:07.372Z,57.50
2024-03-16T09:03:36.537Z,57.90
2024-03-16T09:06:05.855Z,58.20
2024-03-16T09:08:34.840Z,58.30
2024-03-16T09:11:03.986Z,58.50
2024-03-16T09:13:35.089Z,58.60
2024-03-16T09:16:07.152Z,58.80
2024-03-16T09:18:36.465Z,58.70
2024-03-16T09:21:06.594Z,58.80
2024-03-16T09:23:36.008Z,58.90
2024-03-16T09:26:05.370Z,59.00
2024-03-16T09:28:35.512Z,59.00
2024-03-16T09:31:06.877Z,59.10
2024-03-16T09:33:36.075Z,59.20
2024-03-16T09:36:05.417Z,59.30
2024-03-16T09:38:36.270Z,59.30
2024-03-16T09:41:05.466Z,59.40
